createdAt,value
2019-04-25T00:01:49.667Z,10.68
2019-04-25T00:04:18.475Z,10.70
2019-04-25T00:06:47.447Z,10.67
2019-04-25T00:09:18.784Z,10.61
2019-04-25T00:11:48.913Z,10.43
2019-04-25T00:14:17.779Z,10.18
2019-04-25T00:16:51.597Z,10.34
2019-04-25T00:19:21.910Z,10.11
2019-04-25T00:21:59.270Z,9.84
2019-04-25T00:24:45.137Z,9.90
2019-04-25T00:27:14.018Z,9.75
2019-04-25T00:29:43.936Z,9.76
2019-04-25T00:32:13.386Z,9.98
2019-04-25T00:34:44.250Z,9.64
2019-04-25T00:37:13.942Z,9.47
2019-04-25T00:39:45.060Z,9.65
2019-04-25T00:42:14.320Z,9.55
2019-04-25T00:44:44.799Z,9.53
2019-04-25T00:47:13.826Z,9.29
2019-04-25T00:49:44.041Z,9.52
2019-04-25T00:52:13.029Z,9.68
2019-04-25T00:54:43.062Z,9.61
2019-04-25T00:57:12.209Z,9.17
2019-04-25T00:59:55.642Z,8.93
2019-04-25T01:02:37.871Z,8.82
2019-04-25T01:05:09.488Z,9.03
2019-04-25T01:07:38.244Z,8.75
2019-04-25T01:10:08.587Z,8.48
2019-04-25T01:12:37.358Z,8.33
2019-04-25T01:15:07.253Z,8.26
2019-04-25T01:17:36.018Z,8.17
2019-04-25T01:20:05.856Z,8.46
2019-04-25T01:22:34.691Z,8.49
2019-04-25T01:25:03.907Z,8.58
2019-04-25T01:27:33.292Z,8.46
2019-04-25T01:30:02.156Z,8.17
2019-04-25T01:32:35.073Z,8.38
2019-04-25T01:35:16.353Z,8.38
2019-04-25T01:37:51.800Z,8.25
2019-04-25T01:40:39.595Z,7.99
2019-04-25T01:43:21.369Z,7.92
2019-04-25T01:45:50.175Z,8.01
2019-04-25T01:48:18.969Z,8.03
2019-04-25T01:50:49.285Z,8.03
2019-04-25T01:53:18.388Z,8.18
2019-04-25T01:55:56.115Z,8.15
2019-04-25T01:58:18.070Z,8.09
2019-04-25T02:00:48.283Z,8.24
2019-04-25T02:03:17.367Z,8.32
2019-04-25T02:05:46.229Z,8.30
2019-04-25T02:08:15.204Z,8.04
2019-04-25T02:10:45.795Z,7.73
2019-04-25T02:13:16.890Z,7.79
2019-04-25T02:15:45.884Z,7.69
2019-04-25T02:18:14.739Z,7.54
2019-04-25T02:20:43.746Z,7.37
2019-04-25T02:23:14.093Z,7.46
2019-04-25T02:25:44.301Z,7.22
2019-04-25T02:28:15.575Z,7.21
2019-04-25T02:30:45.363Z,7.02
2019-04-25T02:33:14.344Z,7.05
2019-04-25T02:35:46.590Z,7.18
2019-04-25T02:38:14.689Z,7.40
2019-04-25T02:40:45.402Z,7.24
2019-04-25T02:43:15.428Z,7.04
2019-04-25T02:46:03.982Z,7.20
2019-04-25T02:48:50.335Z,7.17
2019-04-25T02:51:28.636Z,7.01
2019-04-25T02:53:57.937Z,6.59
2019-04-25T02:56:34.088Z,6.52
2019-04-25T02:58:58.488Z,6.55
2019-04-25T03:01:27.443Z,6.34
2019-04-25T03:03:57.586Z,6.76
2019-04-25T03:06:26.963Z,6.77
2019-04-25T03:08:56.842Z,6.67
2019-04-25T03:11:26.128Z,6.75
2019-04-25T03:13:55.000Z,6.75
2019-04-25T03:16:25.105Z,6.79
2019-04-25T03:19:02.907Z,6.81
2019-04-25T03:21:35.217Z,6.79
2019-04-25T03:24:08.157Z,6.75
2019-04-25T03:26:40.387Z,6.49
2019-04-25T03:29:13.659Z,7.16
2019-04-25T08:02:43.577Z,13.32
2019-04-25T08:05:16.641Z,13.51
2019-04-25T08:07:45.575Z,13.67
2019-04-25T08:10:15.375Z,13.94
2019-04-25T08:12:47.286Z,13.99
2019-04-25T08:15:35.025Z,14.07
2019-04-25T08:18:05.755Z,14.12
2019-04-25T08:20:35.881Z,14.20
2019-04-25T08:23:06.310Z,14.33
2019-04-25T08:25:38.882Z,14.47
2019-04-25T08:28:05.724Z,14.46
2019-04-25T08:30:35.634Z,14.51
2019-04-25T08:33:05.662Z,14.73
2019-04-25T08:35:35.495Z,14.76
2019-04-25T08:38:05.837Z,14.67
2019-04-25T08:40:37.071Z,14.77
2019-04-25T08:43:05.553Z,15.12
2019-04-25T08:45:35.677Z,15.20
2019-04-25T08:48:05.069Z,15.23
2019-04-25T08:50:41.027Z,15.24
2019-04-25T08:53:10.221Z,15.25
2019-04-25T08:55:57.403Z,15.53
2019-04-25T08:58:41.237Z,15.55
2019-04-25T09:01:20.699Z,15.55
2019-04-25T09:03:54.360Z,15.59
2019-04-25T09:06:24.360Z,15.70
2019-04-25T09:08:54.015Z,15.79
2019-04-25T09:11:24.370Z,15.87
2019-04-25T09:13:53.740Z,15.98
2019-04-25T09:16:23.954Z,16.00
2019-04-25T09:18:53.949Z,16.00
2019-04-25T09:21:23.801Z,16.14
2019-04-25T09:23:53.551Z,16.01
2019-04-25T09:26:23.991Z,16.17
2019-04-25T09:28:53.632Z,16.19
2019-04-25T09:31:23.620Z,16.28
2019-04-25T09:33:54.831Z,16.30
2019-04-25T09:36:24.091Z,16.45
2019-04-25T09:38:55.482Z,16.60
2019-04-25T09:41:24.381Z,16.55
2019-04-25T09:43:56.321Z,16.64
2019-04-25T09:46:30.983Z,16.87
2019-04-25T09:49:14.208Z,16.82
2019-04-25T09:51:47.342Z,16.90
2019-04-25T09:54:42.392Z,17.24
2019-04-25T09:57:29.392Z,17.13
2019-04-25T09:59:58.124Z,17.13
2019-04-25T10:02:27.236Z,17.36
2019-04-25T10:04:55.996Z,17.43
2019-04-25T10:07:24.852Z,17.63
2019-04-25T10:09:54.765Z,17.51
2019-04-25T10:12:23.590Z,17.65
2019-04-25T10:15:04.781Z,17.90
2019-04-25T10:17:33.877Z,17.94
2019-04-25T10:20:02.715Z,18.18
2019-04-25T10:22:31.460Z,18.19
2019-04-25T10:25:00.866Z,18.12
2019-04-25T10:27:29.727Z,18.13
2019-04-25T10:29:58.491Z,18.19
2019-04-25T10:32:27.492Z,18.48
2019-04-25T10:34:56.311Z,18.42
2019-04-25T10:37:25.112Z,18.46
2019-04-25T10:39:55.531Z,18.60
2019-04-25T10:42:24.646Z,18.69
2019-04-25T10:44:56.269Z,18.93
2019-04-25T10:47:23.997Z,18.77
2019-04-25T10:49:53.677Z,18.87
2019-04-25T10:52:23.445Z,19.01
2019-04-25T10:54:54.176Z,19.02
2019-04-25T10:57:24.952Z,19.00
2019-04-25T11:00:05.104Z,19.19
2019-04-25T11:02:24.634Z,19.45
2019-04-25T11:04:59.239Z,19.11
2019-04-25T11:07:28.105Z,19.03
2019-04-25T11:09:57.265Z,18.85
2019-04-25T11:12:26.243Z,18.88
2019-04-25T11:14:56.252Z,19.28
2019-04-25T11:17:25.097Z,19.40
2019-04-25T11:19:55.212Z,19.31
2019-04-25T11:22:24.094Z,19.48
2019-04-25T11:24:53.095Z,19.68
2019-04-25T11:27:23.757Z,19.52
2019-04-25T11:30:02.853Z,19.39
2019-04-25T11:32:26.529Z,19.72
2019-04-25T11:34:55.354Z,19.68
2019-04-25T11:37:25.973Z,19.67
2019-04-25T11:40:01.499Z,19.78
2019-04-25T11:42:30.311Z,19.80
2019-04-25T11:44:59.204Z,19.86
2019-04-25T11:47:28.149Z,20.00
2019-04-25T11:49:56.992Z,19.82
2019-04-25T11:52:28.397Z,20.02
2019-04-25T11:54:56.316Z,20.32
2019-04-25T11:57:25.215Z,20.47
2019-04-25T11:59:54.581Z,20.55
2019-04-25T12:02:26.060Z,20.51
2019-04-25T12:04:55.302Z,20.49
2019-04-25T12:07:24.228Z,20.28
2019-04-25T12:09:54.481Z,20.06
2019-04-25T12:12:23.794Z,20.05
2019-04-25T12:14:54.349Z,20.29
2019-04-25T12:17:23.536Z,20.52
2019-04-25T12:19:53.943Z,20.40
2019-04-25T12:22:23.824Z,20.53
2019-04-25T12:24:54.368Z,20.61
2019-04-25T12:27:23.334Z,20.49
2019-04-25T12:29:52.450Z,20.63
2019-04-25T12:32:21.374Z,20.72
2019-04-25T12:34:51.634Z,20.66
2019-04-25T12:37:20.525Z,20.68
2019-04-25T12:39:49.417Z,20.75
2019-04-25T12:42:18.215Z,21.00
2019-04-25T12:44:58.201Z,21.08
2019-04-25T12:47:28.610Z,21.05
2019-04-25T12:49:57.923Z,21.08
2019-04-25T12:52:26.814Z,21.13
2019-04-25T12:54:58.074Z,21.21
2019-04-25T12:57:26.379Z,21.20
2019-04-25T12:59:55.539Z,21.13
2019-04-25T13:02:24.429Z,21.08
2019-04-25T13:04:55.211Z,21.03
2019-04-25T13:07:23.838Z,21.20
2019-04-25T13:09:53.693Z,21.23
2019-04-25T13:12:23.395Z,21.49
2019-04-25T13:14:52.301Z,21.49
2019-04-25T13:17:21.167Z,21.32
2019-04-25T13:19:49.974Z,21.35
2019-04-25T13:22:19.054Z,21.40
2019-04-25T13:24:47.865Z,21.25
2019-04-25T13:27:25.136Z,21.37
2019-04-25T13:30:21.998Z,21.52
2019-04-25T13:33:08.581Z,21.56
2019-04-25T13:35:43.385Z,21.78
2019-04-25T13:38:12.108Z,21.79
2019-04-25T13:40:41.449Z,21.80
2019-04-25T13:43:10.503Z,21.90
2019-04-25T13:45:39.273Z,21.75
2019-04-25T13:48:08.076Z,21.99
2019-04-25T13:50:36.804Z,22.06
2019-04-25T13:53:06.075Z,21.89
2019-04-25T13:55:34.822Z,22.09
2019-04-25T13:58:04.362Z,21.96
2019-04-25T14:00:34.861Z,21.97
2019-04-25T14:03:04.135Z,21.81
2019-04-25T14:05:34.017Z,21.95
2019-04-25T14:08:03.988Z,21.97
2019-04-25T14:10:34.231Z,22.21
2019-04-25T14:13:03.578Z,22.39
2019-04-25T14:15:34.362Z,22.20
2019-04-25T14:18:24.051Z,22.37
2019-04-25T14:20:56.991Z,22.48
2019-04-25T14:23:25.817Z,22.26
2019-04-25T14:25:54.547Z,22.19
2019-04-25T14:28:24.895Z,22.20
2019-04-25T14:30:53.791Z,22.19
2019-04-25T14:33:25.296Z,22.31
2019-04-25T14:35:54.818Z,22.15
2019-04-25T14:38:25.084Z,22.11
2019-04-25T14:40:54.453Z,22.21
2019-04-25T14:43:24.103Z,22.50
2019-04-25T14:45:52.951Z,22.50
2019-04-25T14:48:22.563Z,22.66
2019-04-25T14:50:52.346Z,22.78
2019-04-25T14:53:21.490Z,22.82
2019-04-25T14:56:01.998Z,22.83
2019-04-25T14:58:33.402Z,22.86
2019-04-25T15:01:02.208Z,22.98
2019-04-25T15:03:31.803Z,22.85
2019-04-25T15:06:00.685Z,22.90
2019-04-25T15:08:30.594Z,22.82
2019-04-25T15:10:59.430Z,22.72
2019-04-25T15:13:28.480Z,22.75
2019-04-25T15:15:57.323Z,22.67
2019-04-25T15:18:26.761Z,22.40
2019-04-25T15:20:55.471Z,22.45
2019-04-25T15:23:25.340Z,22.45
2019-04-25T15:25:54.325Z,22.50
2019-04-25T15:28:24.413Z,22.47
2019-04-25T15:30:53.510Z,22.23
2019-04-25T15:33:22.253Z,22.29
2019-04-25T15:35:56.883Z,22.41
2019-04-25T15:38:35.911Z,22.16
2019-04-25T15:41:30.451Z,22.23
2019-04-25T15:44:18.541Z,22.27
2019-04-25T15:46:47.288Z,22.21
2019-04-25T15:49:16.368Z,22.13
2019-04-25T15:51:45.291Z,22.04
2019-04-25T15:54:14.196Z,21.90
2019-04-25T15:56:42.977Z,21.96
2019-04-25T15:59:12.161Z,21.94
2019-04-25T16:01:40.976Z,21.87
2019-04-25T16:04:09.871Z,21.93
2019-04-25T16:06:38.695Z,21.70
2019-04-25T16:09:10.360Z,21.71
2019-04-25T16:11:38.470Z,21.63
2019-04-25T16:14:07.419Z,21.62
2019-04-25T16:16:36.175Z,21.39
2019-04-25T16:19:05.036Z,21.45
2019-04-25T16:21:33.901Z,21.33
2019-04-25T16:24:03.321Z,21.19
2019-04-25T16:26:32.153Z,21.21
2019-04-25T16:29:00.921Z,21.29
2019-04-25T16:31:30.455Z,21.25
2019-04-25T16:33:59.317Z,21.24
2019-04-25T16:36:28.266Z,21.31
2019-04-25T16:38:57.035Z,21.26
2019-04-25T16:41:25.914Z,21.03
2019-04-25T16:43:58.846Z,21.02
2019-04-25T16:46:28.794Z,21.06
2019-04-25T16:48:57.543Z,20.95
2019-04-25T16:51:26.406Z,21.01
2019-04-25T16:53:55.226Z,20.99
2019-04-25T16:56:24.174Z,20.90
2019-04-25T16:58:53.075Z,20.89
2019-04-25T17:01:21.905Z,20.71
2019-04-25T17:03:50.705Z,20.65
2019-04-25T17:06:19.776Z,20.64
2019-04-25T17:08:48.881Z,20.53
2019-04-25T17:11:18.001Z,20.36
2019-04-25T17:13:55.403Z,20.37
2019-04-25T17:16:58.425Z,20.40
2019-04-25T17:19:52.471Z,20.29
2019-04-25T17:22:21.689Z,20.37
2019-04-25T17:24:50.719Z,20.23
2019-04-25T17:27:20.318Z,20.23
2019-04-25T17:29:49.189Z,20.13
2019-04-25T17:32:53.558Z,20.14
2019-04-25T17:35:32.045Z,20.02
2019-04-25T17:38:04.879Z,19.96
2019-04-25T17:40:33.926Z,19.91
2019-04-25T17:43:10.942Z,19.83
2019-04-25T17:45:34.740Z,19.86
2019-04-25T17:48:04.460Z,19.79
2019-04-25T17:50:34.228Z,19.81
2019-04-25T17:53:03.124Z,19.68
2019-04-25T17:55:33.163Z,19.59
2019-04-25T17:58:02.218Z,19.52
2019-04-25T18:00:39.705Z,19.38
2019-04-25T18:03:10.839Z,19.23
2019-04-25T18:05:39.771Z,19.09
2019-04-25T18:08:08.633Z,19.03
2019-04-25T18:10:37.773Z,18.87
2019-04-25T18:13:09.416Z,18.78
2019-04-25T18:16:02.882Z,18.57
2019-04-25T18:18:40.216Z,18.46
2019-04-25T18:21:09.179Z,18.18
2019-04-25T18:24:03.216Z,18.14
2019-04-25T18:26:37.427Z,18.08
2019-04-25T18:29:09.871Z,17.94
2019-04-25T18:31:39.582Z,17.86
2019-04-25T18:34:12.344Z,17.83
2019-04-25T18:37:00.177Z,17.86
2019-04-25T18:39:36.603Z,17.95
2019-04-25T18:42:10.422Z,18.10
2019-04-25T18:44:42.566Z,18.09
2019-04-25T18:47:11.316Z,18.15
2019-04-25T18:49:42.506Z,18.18
2019-04-25T18:52:21.813Z,18.19
2019-04-25T18:54:57.728Z,18.18
2019-04-25T18:57:42.053Z,18.18
2019-04-25T19:00:39.901Z,18.14
2019-04-25T19:03:28.995Z,18.13
2019-04-25T19:06:00.579Z,18.15
2019-04-25T19:08:29.678Z,18.13
2019-04-25T19:10:58.653Z,18.15
2019-04-25T19:13:27.466Z,18.17
2019-04-25T19:15:56.521Z,18.20
2019-04-25T19:18:25.278Z,18.16
2019-04-25T19:20:54.588Z,18.21
2019-04-25T19:23:23.378Z,18.20
2019-04-25T19:25:52.541Z,18.15
2019-04-25T19:28:21.647Z,18.11
2019-04-25T19:30:51.389Z,18.09
2019-04-25T19:33:21.952Z,18.01
2019-04-25T19:35:51.826Z,18.15
2019-04-25T19:38:20.820Z,18.03
2019-04-25T19:41:09.666Z,17.91
2019-04-25T19:43:54.230Z,17.94
2019-04-25T19:46:37.810Z,17.95
2019-04-25T19:49:07.452Z,18.04
2019-04-25T19:51:37.271Z,17.92
2019-04-25T19:54:07.481Z,17.88
2019-04-25T19:56:36.857Z,17.82
2019-04-25T19:59:06.346Z,17.80
2019-04-25T20:01:35.356Z,17.75
2019-04-25T20:04:15.965Z,17.74
2019-04-25T20:07:03.074Z,17.72
2019-04-25T20:09:49.855Z,17.65
2019-04-25T20:12:18.908Z,17.45
2019-04-25T20:14:47.861Z,17.14
2019-04-25T20:17:16.624Z,16.73
2019-04-25T20:19:45.958Z,16.41
2019-04-25T20:22:14.687Z,16.28
2019-04-25T20:24:46.827Z,16.16
2019-04-25T20:27:15.628Z,16.01
2019-04-25T20:29:45.260Z,15.93
2019-04-25T20:32:15.187Z,15.83
2019-04-25T20:34:44.562Z,15.69
2019-04-25T20:37:14.492Z,15.56
2019-04-25T20:39:43.301Z,15.44
2019-04-25T20:42:14.763Z,15.25
2019-04-25T20:44:43.889Z,15.20
2019-04-25T20:47:12.730Z,15.23
2019-04-25T20:49:41.505Z,15.23
2019-04-25T20:52:10.280Z,15.44
2019-04-25T20:54:39.015Z,15.21
2019-04-25T20:57:07.836Z,15.09
2019-04-25T20:59:36.577Z,15.13
2019-04-25T21:02:06.066Z,15.17
2019-04-25T21:04:41.952Z,15.04
2019-04-25T21:07:11.227Z,15.11
2019-04-25T21:09:40.518Z,15.19
2019-04-25T21:12:09.820Z,15.07
2019-04-25T21:14:56.502Z,15.12
2019-04-25T21:17:43.256Z,15.02
2019-04-25T21:20:12.460Z,14.82
2019-04-25T21:22:41.443Z,14.75
2019-04-25T21:25:10.487Z,14.70
2019-04-25T21:27:39.374Z,14.80
2019-04-25T21:30:09.811Z,14.74
2019-04-25T21:32:53.394Z,14.68
2019-04-25T21:35:23.385Z,14.70
2019-04-25T21:37:53.458Z,14.87
2019-04-25T21:40:38.771Z,14.88
2019-04-25T21:43:11.455Z,14.84
2019-04-25T21:45:40.500Z,14.80
2019-04-25T21:48:09.605Z,14.83
2019-04-25T21:50:38.650Z,14.91
2019-04-25T21:53:07.756Z,14.85
2019-04-25T21:55:36.842Z,14.90
2019-04-25T21:58:06.004Z,14.79
2019-04-25T22:00:53.807Z,14.77
2019-04-25T22:03:24.802Z,14.76
2019-04-25T22:05:54.328Z,14.69
2019-04-25T22:08:24.183Z,14.63
2019-04-25T22:10:53.396Z,14.36
2019-04-25T22:13:22.339Z,14.48
2019-04-25T22:15:51.664Z,14.54
2019-04-25T22:18:20.802Z,14.36
2019-04-25T22:20:49.575Z,14.42
2019-04-25T22:23:18.587Z,14.32
2019-04-25T22:25:47.637Z,14.12
2019-04-25T22:28:16.689Z,14.11
2019-04-25T22:30:47.715Z,14.03
2019-04-25T22:33:41.339Z,13.99
2019-04-25T22:36:13.623Z,13.81
2019-04-25T22:38:42.565Z,13.70
2019-04-25T22:41:11.646Z,13.87
2019-04-25T22:43:44.028Z,15.45
2019-04-25T22:46:25.210Z,15.52
2019-04-25T22:48:49.300Z,16.70
2019-04-25T22:51:18.378Z,16.95
2019-04-25T22:53:47.743Z,16.73
2019-04-25T22:56:16.589Z,16.77
2019-04-25T22:58:45.520Z,16.81
2019-04-25T23:01:46.218Z,16.98
2019-04-25T23:04:25.296Z,16.91
2019-04-25T23:06:54.036Z,16.58
2019-04-25T23:09:22.840Z,16.42
2019-04-25T23:11:52.001Z,16.17
2019-04-25T23:14:21.003Z,16.15
2019-04-25T23:16:49.761Z,15.90
2019-04-25T23:19:18.568Z,15.86
2019-04-25T23:21:47.505Z,15.69
2019-04-25T23:24:17.888Z,15.59
2019-04-25T23:27:14.834Z,15.47
2019-04-25T23:29:43.639Z,15.34
2019-04-25T23:32:12.657Z,15.24
2019-04-25T23:34:41.401Z,15.08
2019-04-25T23:37:10.917Z,14.97
2019-04-25T23:39:40.218Z,15.01
2019-04-25T23:42:09.328Z,15.08
2019-04-25T23:44:38.407Z,14.94
2019-04-25T23:47:08.243Z,14.93
2019-04-25T23:49:37.502Z,14.83
2019-04-25T23:52:07.372Z,14.71
2019-04-25T23:54:36.167Z,14.85
2019-04-25T23:57:05.286Z,14.72
2019-04-25T23:59:34.016Z,14.69
